Time;durP1;ratioP1;P1;durP2;ratioP2;P2;SDS_P1;SDS_P2;PMS_P1;PMS_P2;Temp;Humidity;BMP_temperature;BMP_pressure;BME280_temperature;BME280_humidity;BME280_pressure;Samples;Min_cycle;Max_cycle;Signal;HPM_P1;HPM_P2
2022/09/18 00:02:36;;;;;;;2.65;1.10;;;;;;;-140.66;100.00;55571.53;5055865;28;20369;-74
2022/09/18 00:05:22;;;;;;;4.80;1.20;;;;;;;-140.66;100.00;55571.53;5055967;28;20021;-75
2022/09/18 00:08:09;;;;;;;1.80;1.20;;;;;;;-140.66;100.00;55571.53;5040961;28;20029;-75
2022/09/18 00:10:54;;;;;;;2.85;1.00;;;;;;;-140.66;100.00;55571.53;5055164;28;20083;-76
2022/09/18 00:13:41;;;;;;;5.28;1.10;;;;;;;-140.66;100.00;55571.53;5055319;28;20051;-76
2022/09/18 00:16:27;;;;;;;2.72;1.25;;;;;;;-140.66;100.00;55571.53;5055979;28;20342;-75
2022/09/18 00:19:14;;;;;;;2.13;1.30;;;;;;;-140.66;100.00;55571.53;5054661;28;20095;-75
2022/09/18 00:22:00;;;;;;;2.20;1.10;;;;;;;-140.66;100.00;55571.53;5055892;28;20428;-76
2022/09/18 00:24:45;;;;;;;2.65;1.00;;;;;;;-140.66;100.00;55571.53;5055163;28;20365;-76
2022/09/18 00:27:32;;;;;;;1.90;1.10;;;;;;;-140.66;100.00;55571.53;5055683;28;20468;-76
2022/09/18 00:30:17;;;;;;;4.22;1.30;;;;;;;-140.66;100.00;55571.53;5056864;28;20028;-72
2022/09/18 00:33:03;;;;;;;4.68;1.27;;;;;;;-140.66;100.00;55571.53;5057507;28;20021;-75
2022/09/18 00:35:49;;;;;;;1.88;1.05;;;;;;;-140.66;100.00;55571.53;5045569;28;20040;-76
2022/09/18 00:38:35;;;;;;;1.83;1.17;;;;;;;-140.66;100.00;55571.53;5056998;28;20035;-75
2022/09/18 00:41:24;;;;;;;3.47;1.23;;;;;;;-140.66;100.00;55571.53;5040882;28;20048;-74
2022/09/18 00:44:33;;;;;;;2.05;1.20;;;;;;;-140.66;100.00;55571.53;5064040;28;20330;-73
2022/09/18 00:47:40;;;;;;;2.83;1.20;;;;;;;-140.66;100.00;55571.53;5061459;28;20025;-74
2022/09/18 00:50:26;;;;;;;2.70;1.40;;;;;;;-140.66;100.00;55571.53;5062920;28;20040;-73
2022/09/18 00:53:12;;;;;;;1.80;1.30;;;;;;;-140.66;100.00;55571.53;5064465;28;20060;-74
2022/09/18 00:55:59;;;;;;;3.28;1.60;;;;;;;-140.66;100.00;55571.53;5063843;28;20083;-73
2022/09/18 00:58:45;;;;;;;2.13;1.70;;;;;;;-140.66;100.00;55571.53;5044200;28;20091;-74
2022/09/18 01:01:31;;;;;;;5.07;2.40;;;;;;;-140.66;100.00;55571.53;5054816;28;20025;-75
2022/09/18 01:04:17;;;;;;;5.43;1.95;;;;;;;-140.66;100.00;55571.53;5054043;28;20110;-75
2022/09/18 01:07:15;;;;;;;4.25;2.38;;;;;;;-140.66;100.00;55571.53;5054941;28;20087;-75
2022/09/18 01:10:09;;;;;;;4.78;2.85;;;;;;;-140.66;100.00;55571.53;5054350;28;20017;-76
2022/09/18 01:12:59;;;;;;;9.00;3.17;;;;;;;-140.66;100.00;55571.53;5054425;28;20401;-76
2022/09/18 01:16:26;;;;;;;6.13;3.42;;;;;;;-140.66;100.00;55571.53;5054061;28;20017;-76
2022/09/18 01:19:48;;;;;;;5.95;3.90;;;;;;;-140.66;100.00;55571.53;5054059;28;20049;-74
2022/09/18 01:23:01;;;;;;;6.43;4.03;;;;;;;-140.66;100.00;55571.53;5053858;28;20347;-74
2022/09/18 01:26:18;;;;;;;7.18;3.72;;;;;;;-140.66;100.00;55571.53;5054581;28;20090;-76
2022/09/18 01:29:06;;;;;;;6.25;3.92;;;;;;;-140.66;100.00;55571.53;5054004;28;20020;-75
2022/09/18 01:31:52;;;;;;;7.25;2.70;;;;;;;-140.66;100.00;55571.53;5054899;28;20032;-75
2022/09/18 01:34:55;;;;;;;15.88;2.60;;;;;;;-140.66;100.00;55571.53;5053727;28;20021;-76
2022/09/18 01:37:57;;;;;;;2.88;1.25;;;;;;;-140.66;100.00;55571.53;5053891;28;20032;-73
2022/09/18 01:40:49;;;;;;;4.32;1.05;;;;;;;-140.66;100.00;55571.53;5039825;28;20028;-75
2022/09/18 01:43:38;;;;;;;6.28;1.25;;;;;;;-140.66;100.00;55571.53;5054075;28;20456;-74
2022/09/18 01:46:24;;;;;;;3.40;1.00;;;;;;;-140.66;100.00;55571.53;5053842;28;20079;-74
2022/09/18 01:49:20;;;;;;;2.33;0.70;;;;;;;-140.66;100.00;55571.53;5053750;28;20033;-73
2022/09/18 01:52:15;;;;;;;6.22;0.88;;;;;;;-140.66;100.00;55571.53;5054309;28;20368;-74
2022/09/18 01:55:07;;;;;;;3.42;0.90;;;;;;;-140.66;100.00;55571.53;5053163;28;20102;-74
2022/09/18 01:58:05;;;;;;;1.55;0.98;;;;;;;-140.66;100.00;55571.53;5039363;28;20112;-75
2022/09/18 02:00:59;;;;;;;3.63;0.90;;;;;;;-140.66;100.00;55571.53;5053022;28;20347;-74
2022/09/18 02:03:49;;;;;;;3.55;1.05;;;;;;;-140.66;100.00;55571.53;5053653;28;20096;-74
2022/09/18 02:06:41;;;;;;;2.08;0.95;;;;;;;-140.66;100.00;55571.53;5039747;28;20044;-75
2022/09/18 02:09:27;;;;;;;4.82;0.90;;;;;;;-140.66;100.00;55571.53;5053392;28;20407;-73
2022/09/18 02:12:19;;;;;;;5.18;0.73;;;;;;;-140.66;100.00;55571.53;5043886;28;20106;-73
2022/09/18 02:15:09;;;;;;;2.75;0.80;;;;;;;-140.66;100.00;55571.53;5057710;28;20128;-75
2022/09/18 02:17:59;;;;;;;3.55;0.85;;;;;;;-140.66;100.00;55571.53;5057675;28;20033;-75
2022/09/18 02:20:46;;;;;;;7.57;0.80;;;;;;;-140.66;100.00;55571.53;5057557;28;20457;-73
2022/09/18 02:23:32;;;;;;;9.43;0.85;;;;;;;-140.66;100.00;55571.53;5057375;28;20025;-74
2022/09/18 02:26:20;;;;;;;7.05;0.73;;;;;;;-140.66;100.00;55571.53;5058587;28;20035;-74
2022/09/18 02:29:09;;;;;;;2.50;0.50;;;;;;;-140.66;100.00;55571.53;5058114;28;20060;-74
2022/09/18 02:31:54;;;;;;;2.88;0.52;;;;;;;-140.66;100.00;55571.53;5056799;28;20040;-74
2022/09/18 02:34:40;;;;;;;10.32;0.52;;;;;;;-140.66;100.00;55571.53;5043603;28;20032;-75
2022/09/18 02:37:32;;;;;;;4.40;0.47;;;;;;;-140.66;100.00;55571.53;5057784;28;20108;-73
2022/09/18 02:40:55;;;;;;;1.30;0.57;;;;;;;-140.66;100.00;55571.53;5057209;28;20036;-72
2022/09/18 02:43:56;;;;;;;4.68;0.70;;;;;;;-140.66;100.00;55571.53;5050519;28;20119;-73
2022/09/18 02:47:03;;;;;;;1.30;0.55;;;;;;;-140.66;100.00;55571.53;5043689;28;20119;-74
2022/09/18 02:50:01;;;;;;;2.08;0.95;;;;;;;-140.66;100.00;55571.53;5056706;28;20024;-74
2022/09/18 02:52:50;;;;;;;14.07;0.88;;;;;;;-140.66;100.00;55571.53;5056895;28;20125;-74
2022/09/18 02:55:48;;;;;;;1.45;0.50;;;;;;;-140.66;100.00;55571.53;5056184;28;20049;-73
2022/09/18 02:59:00;;;;;;;7.63;0.70;;;;;;;-140.66;100.00;55571.53;5055977;28;20121;-73
2022/09/18 03:01:47;;;;;;;4.90;0.60;;;;;;;-140.66;100.00;55571.53;5056849;28;20107;-75
2022/09/18 03:04:33;;;;;;;3.60;0.50;;;;;;;-140.66;100.00;55571.53;5056718;28;20032;-74
2022/09/18 03:07:19;;;;;;;2.85;0.57;;;;;;;-140.66;100.00;55571.53;5056687;28;20119;-74
2022/09/18 03:10:05;;;;;;;1.95;0.50;;;;;;;-140.66;100.00;55571.53;5056187;28;20055;-74
2022/09/18 03:12:51;;;;;;;1.58;0.40;;;;;;;-140.66;100.00;55571.53;5043325;28;20033;-74
2022/09/18 03:15:37;;;;;;;1.35;0.32;;;;;;;-140.66;100.00;55571.53;5056752;28;20040;-73
2022/09/18 03:18:23;;;;;;;3.72;0.40;;;;;;;-140.66;100.00;55571.53;5056221;28;20032;-73
2022/09/18 03:21:08;;;;;;;4.28;0.50;;;;;;;-140.66;100.00;55571.53;5056268;28;20021;-73
2022/09/18 03:23:54;;;;;;;1.92;0.68;;;;;;;-140.66;100.00;55571.53;5041128;28;20020;-73
2022/09/18 03:26:40;;;;;;;3.60;0.60;;;;;;;-140.66;100.00;55571.53;5041781;28;20031;-73
2022/09/18 03:29:26;;;;;;;2.00;0.30;;;;;;;-140.66;100.00;55571.53;5055830;28;20451;-74
2022/09/18 03:32:12;;;;;;;1.90;0.40;;;;;;;-140.66;100.00;55571.53;5056140;28;20025;-74
2022/09/18 03:34:57;;;;;;;10.20;0.77;;;;;;;-140.66;100.00;55571.53;5055266;28;20028;-74
2022/09/18 03:37:43;;;;;;;2.58;0.43;;;;;;;-140.66;100.00;55571.53;5055887;28;20107;-74
2022/09/18 03:40:29;;;;;;;3.53;0.60;;;;;;;-140.66;100.00;55571.53;5056070;28;20043;-75
2022/09/18 03:43:14;;;;;;;1.50;0.60;;;;;;;-140.66;100.00;55571.53;5055995;28;20369;-74
2022/09/18 03:46:00;;;;;;;8.98;0.85;;;;;;;-140.66;100.00;55571.53;5057675;28;20025;-73
2022/09/18 03:48:46;;;;;;;4.25;0.60;;;;;;;-140.66;100.00;55571.53;5056565;28;20041;-73
2022/09/18 03:51:32;;;;;;;4.90;0.90;;;;;;;-140.66;100.00;55571.53;5041812;28;20021;-73
2022/09/18 03:54:18;;;;;;;3.17;0.70;;;;;;;-140.66;100.00;55571.53;5055952;28;20033;-74
2022/09/18 03:57:04;;;;;;;8.65;0.95;;;;;;;-140.66;100.00;55571.53;5055829;28;20381;-75
2022/09/18 03:59:49;;;;;;;8.35;0.80;;;;;;;-140.66;100.00;55571.53;5055072;28;20357;-74
2022/09/18 04:02:35;;;;;;;1.77;0.80;;;;;;;-140.66;100.00;55571.53;5064583;28;20088;-74
2022/09/18 04:05:21;;;;;;;3.38;0.60;;;;;;;-140.66;100.00;55571.53;5058792;28;20032;-74
2022/09/18 04:08:07;;;;;;;6.10;0.98;;;;;;;-140.66;100.00;55571.53;5055261;28;20527;-75
2022/09/18 04:10:52;;;;;;;7.38;1.08;;;;;;;-140.66;100.00;55571.53;5055703;28;20116;-74
2022/09/18 04:13:38;;;;;;;1.83;0.93;;;;;;;-140.66;100.00;55571.53;5054876;28;20029;-75
2022/09/18 04:16:24;;;;;;;4.95;1.40;;;;;;;-140.66;100.00;55571.53;5041944;28;20040;-75
2022/09/18 04:19:09;;;;;;;5.70;1.90;;;;;;;-140.66;100.00;55571.53;5055590;28;20089;-74
2022/09/18 04:21:55;;;;;;;4.57;1.80;;;;;;;-140.66;100.00;55571.53;5055578;28;20025;-74
2022/09/18 04:24:41;;;;;;;1.90;1.50;;;;;;;-140.66;100.00;55571.53;5055652;28;20043;-75
2022/09/18 04:27:27;;;;;;;7.53;1.88;;;;;;;-140.66;100.00;55571.53;5055066;28;20364;-76
2022/09/18 04:30:13;;;;;;;6.75;1.80;;;;;;;-140.66;100.00;55571.53;5054473;28;20033;-74
2022/09/18 04:32:59;;;;;;;5.07;1.85;;;;;;;-140.66;100.00;55571.53;5054073;28;20033;-74
2022/09/18 04:35:44;;;;;;;5.57;1.85;;;;;;;-140.66;100.00;55571.53;5055017;28;20029;-75
2022/09/18 04:38:30;;;;;;;7.38;1.60;;;;;;;-140.66;100.00;55571.53;5054673;28;20025;-75
2022/09/18 04:41:16;;;;;;;5.97;1.42;;;;;;;-140.66;100.00;55571.53;5055153;28;20056;-74
2022/09/18 04:44:02;;;;;;;5.00;1.40;;;;;;;-140.66;100.00;55571.53;5054768;28;20029;-74
2022/09/18 04:46:48;;;;;;;5.63;1.60;;;;;;;-140.66;100.00;55571.53;5039522;28;20036;-74
2022/09/18 04:49:34;;;;;;;2.80;1.45;;;;;;;-140.66;100.00;55571.53;5054755;28;20041;-73
2022/09/18 04:52:19;;;;;;;7.18;1.70;;;;;;;-140.66;100.00;55571.53;5054613;28;20036;-74
2022/09/18 04:55:06;;;;;;;5.60;1.50;;;;;;;-140.66;100.00;55571.53;5054600;28;20036;-75
2022/09/18 04:57:51;;;;;;;2.47;1.42;;;;;;;-140.66;100.00;55571.53;5053851;28;20040;-73
2022/09/18 05:00:38;;;;;;;3.83;1.60;;;;;;;-140.66;100.00;55571.53;5054571;28;20029;-74
2022/09/18 05:03:23;;;;;;;3.20;1.35;;;;;;;-140.66;100.00;55571.53;5054789;28;20104;-75
2022/09/18 05:06:09;;;;;;;4.03;1.45;;;;;;;-140.66;100.00;55571.53;5054768;28;20584;-75
2022/09/18 05:08:56;;;;;;;4.53;1.33;;;;;;;-140.66;100.00;55571.53;5054241;28;20452;-74
2022/09/18 05:11:42;;;;;;;4.38;1.58;;;;;;;-140.66;100.00;55571.53;5054068;28;20128;-73
2022/09/18 05:14:27;;;;;;;4.05;1.08;;;;;;;-140.66;100.00;55571.53;5054192;28;20335;-75
2022/09/18 05:17:14;;;;;;;5.70;1.23;;;;;;;-140.66;100.00;55571.53;5053362;28;20021;-74
2022/09/18 05:19:59;;;;;;;8.98;1.48;;;;;;;-140.66;100.00;55571.53;5053377;28;20032;-74
2022/09/18 05:22:46;;;;;;;2.28;1.05;;;;;;;-140.66;100.00;55571.53;5039688;28;20036;-74
2022/09/18 05:25:31;;;;;;;5.20;1.15;;;;;;;-140.66;100.00;55571.53;5054428;28;20029;-74
2022/09/18 05:28:18;;;;;;;4.78;1.20;;;;;;;-140.66;100.00;55571.53;5054219;28;20066;-74
2022/09/18 05:31:03;;;;;;;2.40;1.10;;;;;;;-140.66;100.00;55571.53;5054563;28;20112;-74
2022/09/18 05:33:49;;;;;;;6.72;1.30;;;;;;;-140.66;100.00;55571.53;5053923;28;20116;-73
2022/09/18 05:36:35;;;;;;;3.67;1.30;;;;;;;-140.66;100.00;55571.53;5053682;28;20039;-76
2022/09/18 05:39:21;;;;;;;8.30;1.58;;;;;;;-140.66;100.00;55571.53;5054062;28;20033;-74
2022/09/18 05:42:07;;;;;;;8.27;1.35;;;;;;;-140.66;100.00;55571.53;5054149;28;20082;-74
2022/09/18 05:44:52;;;;;;;4.68;1.23;;;;;;;-140.66;100.00;55571.53;5052529;28;20097;-74
2022/09/18 05:47:39;;;;;;;11.75;1.58;;;;;;;-140.66;100.00;55571.53;5054481;28;20025;-74
2022/09/18 05:50:27;;;;;;;3.38;1.40;;;;;;;-140.66;100.00;55571.53;5053490;28;20033;-74
2022/09/18 05:53:15;;;;;;;13.30;1.58;;;;;;;-140.66;100.00;55571.53;5054018;28;20445;-74
2022/09/18 05:56:01;;;;;;;6.13;1.42;;;;;;;-140.66;100.00;55571.53;5054626;28;20053;-73
2022/09/18 05:58:47;;;;;;;10.43;1.63;;;;;;;-140.66;100.00;55571.53;5052962;28;20025;-74
2022/09/18 06:01:32;;;;;;;10.02;1.40;;;;;;;-140.66;100.00;55571.53;5053616;28;20099;-74
2022/09/18 06:04:18;;;;;;;8.35;1.45;;;;;;;-140.66;100.00;55571.53;5053621;28;20364;-74
2022/09/18 06:07:04;;;;;;;7.93;1.60;;;;;;;-140.66;100.00;55571.53;5053851;28;20356;-73
2022/09/18 06:09:50;;;;;;;8.65;1.65;;;;;;;-140.66;100.00;55571.53;5054464;28;20033;-73
2022/09/18 06:12:36;;;;;;;14.80;2.53;;;;;;;-140.66;100.00;55571.53;5053311;28;20354;-74
2022/09/18 06:15:21;;;;;;;15.77;3.10;;;;;;;-140.66;100.00;55571.53;5053682;28;20029;-74
2022/09/18 06:18:08;;;;;;;17.17;2.17;;;;;;;-140.66;100.00;55571.53;5053225;28;20056;-74
2022/09/18 06:20:56;;;;;;;7.60;1.70;;;;;;;-140.66;100.00;55571.53;5052600;28;20029;-74
2022/09/18 06:23:42;;;;;;;11.82;2.50;;;;;;;-140.66;100.00;55571.53;5052467;28;20039;-74
2022/09/18 06:26:27;;;;;;;8.77;1.92;;;;;;;-140.66;100.00;55571.53;5053450;28;20040;-74
2022/09/18 06:29:13;;;;;;;24.13;2.35;;;;;;;-140.66;100.00;55571.53;5053325;28;20116;-74
2022/09/18 06:31:59;;;;;;;6.07;2.08;;;;;;;-140.66;100.00;55571.53;5053546;28;20029;-73
2022/09/18 06:34:45;;;;;;;18.75;2.22;;;;;;;-140.66;100.00;55571.53;5053721;28;20044;-74
2022/09/18 06:37:31;;;;;;;3.53;1.77;;;;;;;-140.66;100.00;55571.53;5053318;28;20037;-72
2022/09/18 06:40:17;;;;;;;4.38;1.70;;;;;;;-140.66;100.00;55571.53;5053385;28;20036;-72
2022/09/18 06:43:04;;;;;;;8.25;1.65;;;;;;;-140.66;100.00;55571.53;5053088;28;20033;-73
2022/09/18 06:45:54;;;;;;;9.68;2.88;;;;;;;-140.66;100.00;55571.53;5037959;28;20039;-73
2022/09/18 06:48:40;;;;;;;8.57;2.63;;;;;;;-140.66;100.00;55571.53;5053715;28;20033;-72
2022/09/18 06:51:25;;;;;;;7.55;2.75;;;;;;;-140.66;100.00;55571.53;5053294;28;20037;-73
2022/09/18 06:54:12;;;;;;;10.75;2.40;;;;;;;-140.66;100.00;55571.53;5039516;28;20056;-74
2022/09/18 06:56:57;;;;;;;6.82;2.42;;;;;;;-140.66;100.00;55571.53;5054106;28;20416;-73
2022/09/18 06:59:43;;;;;;;11.20;2.50;;;;;;;-140.66;100.00;55571.53;5056979;28;20036;-73
2022/09/18 07:02:29;;;;;;;8.65;2.40;;;;;;;-140.66;100.00;55571.53;5057747;28;20086;-74
2022/09/18 07:05:15;;;;;;;8.73;2.47;;;;;;;-140.66;100.00;55571.53;5056747;28;20118;-75
2022/09/18 07:08:01;;;;;;;14.05;6.88;;;;;;;-140.66;100.00;55571.53;5057422;28;20033;-74
2022/09/18 07:10:47;;;;;;;13.45;3.40;;;;;;;-140.66;100.00;55571.53;5056965;28;20460;-74
2022/09/18 07:13:36;;;;;;;4.97;2.50;;;;;;;-140.66;100.00;55571.53;5056333;28;20037;-72
2022/09/18 07:16:22;;;;;;;3.17;2.30;;;;;;;-140.66;100.00;55571.53;5056327;28;20033;-71
2022/09/18 07:19:07;;;;;;;17.50;3.08;;;;;;;-140.66;100.00;55571.53;5056460;28;20465;-71
2022/09/18 07:21:53;;;;;;;14.18;2.72;;;;;;;-140.66;100.00;55571.53;5056790;28;20036;-71
2022/09/18 07:24:39;;;;;;;11.55;2.53;;;;;;;-140.66;100.00;55571.53;5055974;28;20040;-71
2022/09/18 07:27:25;;;;;;;6.03;2.58;;;;;;;-140.66;100.00;55571.53;5055934;28;20053;-72
2022/09/18 07:30:11;;;;;;;12.57;2.50;;;;;;;-140.66;100.00;55571.53;5056617;28;20098;-72
2022/09/18 07:32:57;;;;;;;9.25;2.63;;;;;;;-140.66;100.00;55571.53;5055278;28;20041;-73
2022/09/18 07:35:42;;;;;;;14.25;2.40;;;;;;;-140.66;100.00;55571.53;5056064;28;20351;-72
2022/09/18 07:38:28;;;;;;;9.60;2.80;;;;;;;-140.66;100.00;55571.53;5055774;28;20116;-72
2022/09/18 07:41:14;;;;;;;7.57;2.65;;;;;;;-140.66;100.00;55571.53;5055999;28;20449;-73
2022/09/18 07:44:01;;;;;;;12.55;2.75;;;;;;;-140.66;100.00;55571.53;5056250;28;20182;-72
2022/09/18 07:46:47;;;;;;;15.18;2.45;;;;;;;-140.66;100.00;55571.53;5056469;28;20094;-72
2022/09/18 07:49:33;;;;;;;6.72;2.53;;;;;;;-140.66;100.00;55571.53;5056118;28;20025;-73
2022/09/18 07:52:19;;;;;;;13.57;2.40;;;;;;;-140.66;100.00;55571.53;5042247;28;20033;-73
2022/09/18 07:55:05;;;;;;;10.45;1.90;;;;;;;-140.66;100.00;55571.53;5040327;28;20021;-73
2022/09/18 07:57:54;;;;;;;13.07;2.10;;;;;;;-140.66;100.00;55571.53;5055461;28;20095;-72
2022/09/18 08:00:40;;;;;;;12.65;1.85;;;;;;;-140.66;100.00;55571.53;5054703;28;20025;-72
2022/09/18 08:03:26;;;;;;;22.52;2.20;;;;;;;-140.66;100.00;55571.53;5056418;28;20040;-72
2022/09/18 08:06:12;;;;;;;12.15;2.10;;;;;;;-140.66;100.00;55571.53;5055739;28;20024;-71
2022/09/18 08:08:58;;;;;;;11.48;2.20;;;;;;;-140.66;100.00;55571.53;5056120;28;20025;-72
2022/09/18 08:11:43;;;;;;;13.27;2.33;;;;;;;-140.66;100.00;55571.53;5055542;28;20052;-72
2022/09/18 08:14:29;;;;;;;12.70;2.00;;;;;;;-140.66;100.00;55571.53;5054850;28;20035;-73
2022/09/18 08:17:15;;;;;;;2.90;1.80;;;;;;;-140.66;100.00;55571.53;5055258;28;20028;-73
2022/09/18 08:20:01;;;;;;;9.00;2.20;;;;;;;-140.66;100.00;55571.53;5040492;28;20449;-72
2022/09/18 08:22:47;;;;;;;9.95;2.03;;;;;;;-140.66;100.00;55571.53;5042055;28;20052;-72
2022/09/18 08:25:33;;;;;;;12.35;2.15;;;;;;;-140.66;100.00;55571.53;5054212;28;20377;-71
2022/09/18 08:28:18;;;;;;;8.38;2.28;;;;;;;-140.66;100.00;55571.53;5054921;28;20029;-71
2022/09/18 08:31:04;;;;;;;17.17;2.10;;;;;;;-140.66;100.00;55571.53;5054534;28;20453;-71
2022/09/18 08:33:51;;;;;;;3.10;1.80;;;;;;;-140.66;100.00;55571.53;5054034;28;20025;-71
2022/09/18 08:36:37;;;;;;;8.85;1.80;;;;;;;-140.66;100.00;55571.53;5055196;28;20116;-71
2022/09/18 08:39:23;;;;;;;7.97;2.83;;;;;;;-140.66;100.00;55571.53;5054103;28;20048;-71
2022/09/18 08:42:35;;;;;;;7.85;1.95;;;;;;;-140.66;100.00;55571.53;5055741;28;20068;-71
2022/09/18 08:45:30;;;;;;;6.05;2.00;;;;;;;-140.66;100.00;55571.53;5054592;28;20036;-71
2022/09/18 08:48:26;;;;;;;6.05;1.65;;;;;;;-140.66;100.00;55571.53;5054699;28;20039;-69
2022/09/18 08:51:32;;;;;;;7.60;1.73;;;;;;;-140.66;100.00;55571.53;5055032;28;20437;-70
2022/09/18 08:54:26;;;;;;;3.67;1.45;;;;;;;-140.66;100.00;55571.53;5054708;28;20036;-72
2022/09/18 08:57:20;;;;;;;9.15;1.80;;;;;;;-140.66;100.00;55571.53;5055278;28;20048;-72
2022/09/18 09:00:33;;;;;;;9.02;2.20;;;;;;;-140.66;100.00;55571.53;5055351;28;20468;-71
2022/09/18 09:03:33;;;;;;;17.80;2.35;;;;;;;-140.66;100.00;55571.53;5054386;28;20025;-72
2022/09/18 09:06:34;;;;;;;7.25;2.08;;;;;;;-140.66;100.00;55571.53;5054085;28;20330;-71
2022/09/18 09:09:41;;;;;;;5.22;2.00;;;;;;;-140.66;100.00;55571.53;5054557;28;20028;-72
2022/09/18 09:12:43;;;;;;;6.97;1.75;;;;;;;-140.66;100.00;55571.53;5054643;28;20074;-71
2022/09/18 09:15:45;;;;;;;8.65;1.80;;;;;;;-140.66;100.00;55571.53;5039371;28;20029;-70
2022/09/18 09:18:35;;;;;;;9.30;2.15;;;;;;;-140.66;100.00;55571.53;5054489;28;20362;-71
2022/09/18 09:21:23;;;;;;;10.13;1.88;;;;;;;-140.66;100.00;55571.53;5053170;28;20531;-71
2022/09/18 09:24:53;;;;;;;12.00;1.83;;;;;;;-140.66;100.00;55571.53;5053720;28;20106;-71
2022/09/18 09:27:45;;;;;;;8.85;2.00;;;;;;;-140.66;100.00;55571.53;4974104;28;20030;-71
2022/09/18 09:30:33;;;;;;;5.22;1.70;;;;;;;-140.66;100.00;55571.53;5054108;28;20021;-70
2022/09/18 09:33:26;;;;;;;10.85;1.63;;;;;;;-140.66;100.00;55571.53;5055629;28;20065;-72
2022/09/18 09:36:14;;;;;;;18.48;2.03;;;;;;;-140.66;100.00;55571.53;5040634;28;20036;-71
2022/09/18 09:39:28;;;;;;;14.60;2.17;;;;;;;-140.66;100.00;55571.53;5054463;28;20033;-72
2022/09/18 09:42:29;;;;;;;6.00;1.55;;;;;;;-140.66;100.00;55571.53;5053786;28;20103;-72
2022/09/18 09:45:24;;;;;;;8.65;1.48;;;;;;;-140.66;100.00;55571.53;5053595;28;20033;-72
2022/09/18 09:48:20;;;;;;;6.25;1.40;;;;;;;-140.66;100.00;55571.53;5053817;28;20075;-72
2022/09/18 09:51:32;;;;;;;4.65;1.52;;;;;;;-140.66;100.00;55571.53;5055344;28;20037;-72
2022/09/18 09:54:18;;;;;;;21.55;1.95;;;;;;;-140.66;100.00;55571.53;5053538;28;20127;-71
2022/09/18 09:57:33;;;;;;;9.55;1.60;;;;;;;-140.66;100.00;55571.53;5039075;28;20504;-72
2022/09/18 10:00:19;;;;;;;6.35;1.40;;;;;;;-140.66;100.00;55571.53;5035989;28;20052;-71
2022/09/18 10:03:29;;;;;;;16.17;1.70;;;;;;;-140.66;100.00;55571.53;5053473;28;20069;-71
2022/09/18 10:06:18;;;;;;;9.40;1.40;;;;;;;-140.66;100.00;55571.53;5053370;28;20028;-71
2022/09/18 10:09:10;;;;;;;8.73;1.63;;;;;;;-140.66;100.00;55571.53;5055035;28;20029;-72
2022/09/18 10:12:05;;;;;;;4.53;1.30;;;;;;;-140.66;100.00;55571.53;5054017;28;20067;-71
2022/09/18 10:14:53;;;;;;;10.32;1.42;;;;;;;-140.66;100.00;55571.53;5054309;28;20025;-71
2022/09/18 10:17:40;;;;;;;11.55;1.95;;;;;;;-140.66;100.00;55571.53;5053742;28;20052;-72
2022/09/18 10:20:29;;;;;;;9.15;1.23;;;;;;;-140.66;100.00;55571.53;5053652;28;20037;-72
2022/09/18 10:23:24;;;;;;;18.60;1.95;;;;;;;-140.66;100.00;55571.53;5053449;28;20025;-71
2022/09/18 10:26:33;;;;;;;10.88;1.58;;;;;;;-140.66;100.00;55571.53;5053421;28;20024;-72
2022/09/18 10:29:19;;;;;;;5.78;1.52;;;;;;;-140.66;100.00;55571.53;5054104;28;20032;-72
2022/09/18 10:32:05;;;;;;;6.60;1.77;;;;;;;-140.66;100.00;55571.53;5054108;28;20021;-71
2022/09/18 10:34:51;;;;;;;4.35;1.58;;;;;;;-140.66;100.00;55571.53;5056556;28;20032;-72
2022/09/18 10:37:39;;;;;;;6.72;1.88;;;;;;;-140.66;100.00;55571.53;5057254;28;20036;-71
2022/09/18 10:40:30;;;;;;;7.28;1.10;;;;;;;-140.66;100.00;55571.53;5058421;28;20094;-72
2022/09/18 10:43:19;;;;;;;4.75;1.20;;;;;;;-140.66;100.00;55571.53;5060005;28;20428;-72
2022/09/18 10:46:05;;;;;;;3.47;1.20;;;;;;;-140.66;100.00;55571.53;5057635;28;20057;-72
2022/09/18 10:48:51;;;;;;;6.10;1.40;;;;;;;-140.66;100.00;55571.53;5057838;28;20056;-71
2022/09/18 10:51:36;;;;;;;6.65;1.23;;;;;;;-140.66;100.00;55571.53;5056257;28;20055;-73
2022/09/18 10:54:23;;;;;;;14.18;1.40;;;;;;;-140.66;100.00;55571.53;5056673;28;20025;-71
2022/09/18 10:57:27;;;;;;;7.45;1.33;;;;;;;-140.66;100.00;55571.53;5057261;28;20128;-72
2022/09/18 11:00:19;;;;;;;10.18;1.40;;;;;;;-140.66;100.00;55571.53;5057047;28;20107;-71
2022/09/18 11:03:33;;;;;;;12.57;1.40;;;;;;;-140.66;100.00;55571.53;5056906;28;20027;-72
2022/09/18 11:06:25;;;;;;;9.57;1.58;;;;;;;-140.66;100.00;55571.53;5056870;28;20029;-70
2022/09/18 11:09:18;;;;;;;5.82;1.17;;;;;;;-140.66;100.00;55571.53;5056568;28;20028;-72
2022/09/18 11:12:11;;;;;;;3.55;1.10;;;;;;;-140.66;100.00;55571.53;5057028;28;20029;-72
2022/09/18 11:15:05;;;;;;;8.60;1.65;;;;;;;-140.66;100.00;55571.53;5056533;28;20513;-72
2022/09/18 11:17:54;;;;;;;12.57;2.70;;;;;;;-140.66;100.00;55571.53;5056660;28;20033;-72
2022/09/18 11:20:45;;;;;;;4.40;2.13;;;;;;;-140.66;100.00;55571.53;5055734;28;20085;-72
2022/09/18 11:23:36;;;;;;;8.70;1.90;;;;;;;-140.66;100.00;55571.53;5056319;28;20025;-72
2022/09/18 11:26:29;;;;;;;4.55;1.20;;;;;;;-140.66;100.00;55571.53;5056340;28;20061;-72
2022/09/18 11:29:27;;;;;;;5.50;1.20;;;;;;;-140.66;100.00;55571.53;5056572;28;20029;-72
2022/09/18 11:32:26;;;;;;;4.18;1.15;;;;;;;-140.66;100.00;55571.53;5055566;28;20029;-71
2022/09/18 11:35:16;;;;;;;4.65;1.20;;;;;;;-140.66;100.00;55571.53;5055937;28;20024;-72
2022/09/18 11:38:06;;;;;;;8.75;1.20;;;;;;;-140.66;100.00;55571.53;5055413;28;20032;-72
2022/09/18 11:40:55;;;;;;;5.70;1.85;;;;;;;-140.66;100.00;55571.53;5056111;28;20039;-72
2022/09/18 11:43:42;;;;;;;7.85;1.98;;;;;;;-140.66;100.00;55571.53;5055485;28;20075;-71
2022/09/18 11:46:51;;;;;;;9.77;1.98;;;;;;;-140.66;100.00;55571.53;5055686;28;20036;-72
2022/09/18 11:49:43;;;;;;;12.43;2.25;;;;;;;-140.66;100.00;55571.53;5055879;28;20028;-72
2022/09/18 11:52:34;;;;;;;9.32;2.00;;;;;;;-140.66;100.00;55571.53;5060544;28;20354;-72
2022/09/18 11:55:56;;;;;;;2.00;1.33;;;;;;;-140.66;100.00;55571.53;5058605;28;20376;-72
2022/09/18 11:59:20;;;;;;;9.25;1.30;;;;;;;-140.66;100.00;55571.53;5055865;28;20029;-72
2022/09/18 12:02:19;;;;;;;21.10;2.28;;;;;;;-140.66;100.00;55571.53;4975790;28;20033;-71
2022/09/18 12:05:14;;;;;;;8.75;1.60;;;;;;;-140.66;100.00;55571.53;5040929;28;20449;-71
2022/09/18 12:08:19;;;;;;;4.20;1.40;;;;;;;-140.66;100.00;55571.53;5055763;28;20052;-72
2022/09/18 12:11:17;;;;;;;10.40;1.67;;;;;;;-140.66;100.00;55571.53;5055867;28;20025;-71
2022/09/18 12:14:21;;;;;;;9.15;1.85;;;;;;;-140.66;100.00;55571.53;5055798;28;20039;-71
2022/09/18 12:17:20;;;;;;;5.72;1.55;;;;;;;-140.66;100.00;55571.53;5055755;28;20029;-71
2022/09/18 12:20:13;;;;;;;11.95;2.03;;;;;;;-140.66;100.00;55571.53;5055503;28;20039;-71
2022/09/18 12:23:01;;;;;;;7.25;2.10;;;;;;;-140.66;100.00;55571.53;5055523;28;20021;-71
2022/09/18 12:26:06;;;;;;;4.20;1.40;;;;;;;-140.66;100.00;55571.53;5041736;28;20346;-72
2022/09/18 12:28:58;;;;;;;11.02;1.77;;;;;;;-140.66;100.00;55571.53;5055064;28;20029;-71
2022/09/18 12:32:25;;;;;;;6.57;1.50;;;;;;;-140.66;100.00;55571.53;5055134;28;20102;-70
2022/09/18 12:35:32;;;;;;;8.32;1.40;;;;;;;-140.66;100.00;55571.53;5054374;28;20450;-72
2022/09/18 12:38:39;;;;;;;4.43;1.48;;;;;;;-140.66;100.00;55571.53;5054977;28;20032;-71
2022/09/18 12:41:28;;;;;;;8.93;1.83;;;;;;;-140.66;100.00;55571.53;5041625;28;20112;-71
2022/09/18 12:44:25;;;;;;;3.80;1.50;;;;;;;-140.66;100.00;55571.53;5055070;28;20505;-70
2022/09/18 12:47:35;;;;;;;7.65;1.35;;;;;;;-140.66;100.00;55571.53;5055005;28;20552;-72
2022/09/18 12:50:39;;;;;;;14.43;2.45;;;;;;;-140.66;100.00;55571.53;5055399;28;20035;-72
2022/09/18 12:53:41;;;;;;;12.60;1.70;;;;;;;-140.66;100.00;55571.53;5054148;28;20040;-71
2022/09/18 12:56:39;;;;;;;6.75;1.30;;;;;;;-140.66;100.00;55571.53;5054316;28;20044;-72